createdAt,value
2023-06-02T00:00:21.605Z,3.78
2023-06-02T00:02:48.559Z,4.55
2023-06-02T00:05:15.519Z,4.00
2023-06-02T00:07:42.330Z,3.45
2023-06-02T00:10:09.903Z,4.38
2023-06-02T00:12:38.083Z,4.22
2023-06-02T00:15:05.761Z,3.40
2023-06-02T00:17:32.633Z,3.22
2023-06-02T00:20:00.600Z,3.65
2023-06-02T00:22:27.344Z,4.07
2023-06-02T00:24:54.160Z,3.40
2023-06-02T00:27:20.950Z,3.35
2023-06-02T00:29:49.078Z,3.15
2023-06-02T00:32:15.825Z,3.83
2023-06-02T00:34:42.641Z,3.65
2023-06-02T00:37:09.417Z,3.45
2023-06-02T00:39:36.152Z,5.07
2023-06-02T00:42:03.873Z,4.15
2023-06-02T00:44:35.056Z,3.63
2023-06-02T00:47:03.103Z,3.60
2023-06-02T00:49:29.881Z,3.67
2023-06-02T00:51:57.925Z,2.95
2023-06-02T00:54:26.171Z,4.50
2023-06-02T00:56:52.809Z,5.00
2023-06-02T00:59:20.799Z,3.53
2023-06-02T01:01:47.693Z,4.57
2023-06-02T01:04:16.147Z,4.07
2023-06-02T01:06:43.427Z,3.63
2023-06-02T01:09:12.376Z,4.38
2023-06-02T01:11:39.105Z,3.20
2023-06-02T01:14:05.961Z,4.72
2023-06-02T01:16:32.697Z,3.97
2023-06-02T01:18:59.972Z,4.10
2023-06-02T01:21:32.156Z,3.45
2023-06-02T01:24:00.211Z,4.32
2023-06-02T01:26:27.940Z,3.47
2023-06-02T01:28:54.932Z,3.53
2023-06-02T01:31:26.582Z,3.35
2023-06-02T01:34:03.397Z,5.07
2023-06-02T01:36:33.847Z,4.10
2023-06-02T01:39:03.122Z,4.07
2023-06-02T01:41:32.286Z,3.00
2023-06-02T01:44:00.168Z,3.95
2023-06-02T01:46:27.526Z,3.25
2023-06-02T01:48:54.344Z,3.22
2023-06-02T01:51:21.496Z,4.28
2023-06-02T01:53:48.372Z,3.63
2023-06-02T01:56:16.438Z,4.20
2023-06-02T01:58:43.099Z,3.33
2023-06-02T02:01:09.837Z,3.55
2023-06-02T02:03:36.704Z,3.90
2023-06-02T02:06:03.985Z,3.83
2023-06-02T02:08:30.877Z,4.10
2023-06-02T02:10:57.553Z,4.38
2023-06-02T02:13:25.572Z,3.88
2023-06-02T02:15:52.256Z,3.35
2023-06-02T02:18:18.938Z,3.70
2023-06-02T02:20:45.557Z,4.05
2023-06-02T02:23:12.232Z,3.28
2023-06-02T02:25:38.937Z,4.55
2023-06-02T02:28:05.660Z,4.10
2023-06-02T02:30:33.739Z,3.92
2023-06-02T02:33:00.412Z,4.00
2023-06-02T02:35:27.113Z,3.75
2023-06-02T02:37:53.957Z,3.70
2023-06-02T02:40:20.700Z,3.42
2023-06-02T02:42:47.392Z,3.65
2023-06-02T02:45:14.461Z,4.13
2023-06-02T02:47:42.552Z,3.60
2023-06-02T02:50:10.349Z,4.00
2023-06-02T02:52:37.191Z,3.78
2023-06-02T02:55:04.823Z,3.88
2023-06-02T02:57:31.495Z,5.05
2023-06-02T02:59:58.314Z,4.22
2023-06-02T03:02:25.041Z,3.72
2023-06-02T03:04:53.250Z,3.92
2023-06-02T03:07:20.102Z,3.38
2023-06-02T03:09:46.905Z,3.92
2023-06-02T03:12:13.616Z,3.88
2023-06-02T03:14:40.303Z,4.57
2023-06-02T03:17:08.001Z,3.60
2023-06-02T03:19:35.028Z,4.15
2023-06-02T03:22:03.165Z,3.85
2023-06-02T03:24:30.020Z,4.00
2023-06-02T03:26:57.374Z,4.30
2023-06-02T03:29:24.185Z,3.50
2023-06-02T03:31:52.064Z,4.38
2023-06-02T03:34:18.819Z,4.40
2023-06-02T03:36:45.501Z,3.10
2023-06-02T03:39:13.551Z,4.93
2023-06-02T03:41:40.279Z,3.83
2023-06-02T03:44:07.223Z,4.20
2023-06-02T03:46:34.597Z,4.93
2023-06-02T03:49:02.070Z,3.22
2023-06-02T03:51:28.737Z,3.55
2023-06-02T03:53:55.483Z,4.32
2023-06-02T03:56:23.732Z,3.63
2023-06-02T03:58:50.667Z,4.07
2023-06-02T04:01:17.923Z,4.65
2023-06-02T04:03:44.891Z,3.65
2023-06-02T04:06:12.974Z,4.53
2023-06-02T04:08:40.090Z,3.08
2023-06-02T04:11:07.604Z,3.08
2023-06-02T04:13:35.663Z,3.40
2023-06-02T04:16:02.949Z,3.35
2023-06-02T04:18:31.395Z,3.75
2023-06-02T04:20:58.217Z,3.45
2023-06-02T04:23:24.896Z,3.47
2023-06-02T04:25:51.561Z,3.67
2023-06-02T04:28:18.366Z,4.07
2023-06-02T04:30:47.156Z,3.65
2023-06-02T04:33:13.980Z,5.07
2023-06-02T04:35:40.672Z,4.00
2023-06-02T04:38:07.459Z,4.03
2023-06-02T04:40:34.210Z,3.60
2023-06-02T04:43:01.089Z,5.50
2023-06-02T04:45:27.773Z,3.28
2023-06-02T04:47:55.938Z,4.07
2023-06-02T04:50:22.706Z,4.28
2023-06-02T04:52:49.373Z,4.10
2023-06-02T04:55:16.078Z,4.40
2023-06-02T04:57:42.988Z,3.70
2023-06-02T05:00:11.055Z,3.88
2023-06-02T05:02:37.793Z,4.10
2023-06-02T05:05:07.368Z,4.88
2023-06-02T05:07:34.109Z,4.05
2023-06-02T05:10:00.805Z,4.57
2023-06-02T05:12:27.517Z,3.53
2023-06-02T05:14:54.287Z,4.13
2023-06-02T05:17:25.144Z,3.65
2023-06-02T05:19:52.066Z,5.13
2023-06-02T05:22:20.240Z,4.28
2023-06-02T05:24:46.945Z,3.72
2023-06-02T05:27:13.668Z,3.95
2023-06-02T05:29:40.674Z,3.88
2023-06-02T05:32:08.199Z,4.25
2023-06-02T05:34:34.935Z,4.30
2023-06-02T05:37:02.346Z,4.75
2023-06-02T05:39:30.863Z,4.15
2023-06-02T05:41:57.781Z,4.05
2023-06-02T05:44:24.491Z,4.30
2023-06-02T05:46:51.225Z,3.97
2023-06-02T05:49:17.917Z,4.97
2023-06-02T05:51:44.689Z,4.63
2023-06-02T05:54:11.421Z,4.57
2023-06-02T05:56:39.503Z,5.38
2023-06-02T05:59:06.779Z,4.53
2023-06-02T06:01:33.471Z,4.05
2023-06-02T06:04:00.312Z,5.20
2023-06-02T06:06:27.189Z,5.35
2023-06-02T06:08:54.423Z,4.43
2023-06-02T06:11:21.244Z,4.00
2023-06-02T06:13:49.435Z,4.20
2023-06-02T06:16:16.168Z,5.38
2023-06-02T06:18:42.976Z,3.97
2023-06-02T06:21:10.130Z,4.13
2023-06-02T06:23:36.902Z,4.85
2023-06-02T06:26:03.844Z,3.80
2023-06-02T06:28:30.772Z,5.20
2023-06-02T06:30:58.835Z,3.50
2023-06-02T06:33:25.463Z,4.00
2023-06-02T06:35:52.141Z,4.35
2023-06-02T06:38:18.780Z,4.72
2023-06-02T06:40:45.456Z,3.90
2023-06-02T06:43:23.767Z,4.88
2023-06-02T06:45:51.807Z,4.72
2023-06-02T06:48:20.018Z,5.63
2023-06-02T06:50:48.239Z,3.92
2023-06-02T06:53:14.941Z,4.28
2023-06-02T06:55:41.756Z,5.18
2023-06-02T06:58:08.402Z,5.78
2023-06-02T07:00:35.212Z,4.68
2023-06-02T07:03:02.026Z,5.07
2023-06-02T07:05:30.344Z,5.32
2023-06-02T07:07:57.680Z,4.38
2023-06-02T07:10:24.518Z,5.28
2023-06-02T07:12:51.257Z,4.97
2023-06-02T07:15:18.142Z,4.55
2023-06-02T07:17:44.919Z,5.45
2023-06-02T07:20:13.621Z,5.82
2023-06-02T07:22:41.663Z,4.80
2023-06-02T07:25:09.269Z,5.50
2023-06-02T07:27:36.052Z,4.72
2023-06-02T07:30:03.122Z,5.18
2023-06-02T07:32:29.879Z,5.40
2023-06-02T07:34:56.655Z,6.57
2023-06-02T07:37:23.314Z,6.35
2023-06-02T07:39:51.582Z,5.78
2023-06-02T07:42:19.299Z,6.10
2023-06-02T07:44:46.018Z,5.78
2023-06-02T07:47:12.860Z,5.88
2023-06-02T07:49:39.993Z,5.63
2023-06-02T07:52:07.000Z,4.47
2023-06-02T07:54:33.868Z,5.20
2023-06-02T07:57:02.074Z,5.07
2023-06-02T07:59:28.797Z,4.88
2023-06-02T08:01:55.687Z,4.72
2023-06-02T08:04:22.521Z,5.25
2023-06-02T08:06:49.279Z,4.60
2023-06-02T08:09:16.258Z,4.93
2023-06-02T08:11:42.938Z,4.30
2023-06-02T08:14:11.091Z,4.78
2023-06-02T08:16:56.303Z,4.25
2023-06-02T08:19:24.573Z,4.50
2023-06-02T08:21:51.447Z,4.00
2023-06-02T08:24:18.199Z,4.22
2023-06-02T08:26:44.854Z,4.35
2023-06-02T08:29:13.080Z,3.90
2023-06-02T08:31:40.101Z,3.25
2023-06-02T08:34:07.493Z,4.03
2023-06-02T08:36:34.610Z,3.28
2023-06-02T08:39:01.910Z,3.13
2023-06-02T08:41:29.246Z,3.35
2023-06-02T08:43:55.958Z,3.45
2023-06-02T08:46:24.178Z,3.53
2023-06-02T08:48:53.841Z,3.22
2023-06-02T08:51:22.286Z,3.10
2023-06-02T08:53:49.560Z,3.28
2023-06-02T08:56:16.939Z,3.38
2023-06-02T08:58:45.817Z,3.95
2023-06-02T09:01:12.842Z,3.83
2023-06-02T09:03:46.752Z,3.65
2023-06-02T09:06:21.269Z,3.30
2023-06-02T09:08:55.812Z,3.38
2023-06-02T09:11:22.566Z,3.13
2023-06-02T09:13:49.702Z,3.15
2023-06-02T09:16:16.465Z,3.25
2023-06-02T09:18:57.588Z,2.40
2023-06-02T09:21:25.308Z,1.88
2023-06-02T09:24:04.009Z,1.63
2023-06-02T09:26:38.738Z,1.42
2023-06-02T09:29:09.351Z,1.50
2023-06-02T09:31:47.062Z,1.38
2023-06-02T09:34:16.668Z,2.03
2023-06-02T09:36:43.869Z,1.40
2023-06-02T09:39:10.734Z,1.27
2023-06-02T09:41:38.634Z,1.70
2023-06-02T09:44:12.307Z,1.25
2023-06-02T09:46:40.766Z,1.80
2023-06-02T09:49:07.677Z,1.08
2023-06-02T09:51:36.039Z,1.55
2023-06-02T09:54:03.175Z,1.52
2023-06-02T09:56:30.761Z,1.38
2023-06-02T09:58:57.802Z,1.20
2023-06-02T10:01:24.567Z,1.20
2023-06-02T10:03:51.264Z,1.10
2023-06-02T10:06:31.260Z,1.15
2023-06-02T10:09:13.364Z,1.30
2023-06-02T10:12:01.271Z,1.40
2023-06-02T10:14:50.654Z,1.40
2023-06-02T10:17:26.175Z,1.35
2023-06-02T10:20:17.258Z,1.52
2023-06-02T10:22:56.328Z,1.10
2023-06-02T10:25:35.575Z,1.48
2023-06-02T10:28:04.183Z,1.13
2023-06-02T10:30:31.033Z,1.10
2023-06-02T10:32:57.886Z,1.20
2023-06-02T10:35:57.458Z,1.20
2023-06-02T10:38:30.183Z,1.40
2023-06-02T10:41:00.809Z,1.27
2023-06-02T10:43:27.676Z,1.20
2023-06-02T10:46:14.438Z,1.15
2023-06-02T10:48:41.941Z,1.25
2023-06-02T10:51:09.707Z,1.08
2023-06-02T10:54:15.953Z,1.13
2023-06-02T10:56:46.305Z,1.25
2023-06-02T10:59:32.958Z,1.80
2023-06-02T11:01:59.792Z,1.00
2023-06-02T11:04:28.449Z,1.55
2023-06-02T11:07:18.291Z,2.58
2023-06-02T11:09:46.226Z,4.85
2023-06-02T11:12:14.758Z,1.52
2023-06-02T11:15:15.864Z,1.35
2023-06-02T11:17:43.105Z,1.33
2023-06-02T11:20:10.339Z,1.50
2023-06-02T11:22:37.675Z,1.60
2023-06-02T11:25:05.109Z,1.10
2023-06-02T11:27:38.624Z,1.27
2023-06-02T11:30:08.072Z,1.10
2023-06-02T11:32:35.317Z,1.30
2023-06-02T11:35:03.246Z,1.23
2023-06-02T11:37:30.044Z,1.25
2023-06-02T11:39:57.350Z,1.27
2023-06-02T11:42:42.278Z,1.90
2023-06-02T11:45:20.221Z,1.30
2023-06-02T11:47:47.740Z,1.23
2023-06-02T11:50:18.115Z,1.52
2023-06-02T11:52:45.225Z,1.40
2023-06-02T11:55:12.143Z,1.70
2023-06-02T11:57:39.016Z,1.33
2023-06-02T12:00:11.958Z,1.20
2023-06-02T12:02:40.110Z,1.48
2023-06-02T12:05:11.281Z,1.45
2023-06-02T12:07:40.652Z,0.90
2023-06-02T12:10:08.924Z,1.23
2023-06-02T12:12:35.909Z,1.58
2023-06-02T12:15:17.344Z,2.97
2023-06-02T12:17:44.139Z,0.85
2023-06-02T12:20:11.148Z,1.33
2023-06-02T12:22:52.399Z,1.92
2023-06-02T12:25:19.882Z,1.15
2023-06-02T12:27:46.645Z,0.90
2023-06-02T12:30:16.225Z,1.08
2023-06-02T12:32:43.000Z,1.20
2023-06-02T12:35:10.038Z,1.05
2023-06-02T12:37:36.961Z,0.88
2023-06-02T12:40:04.028Z,1.17
2023-06-02T12:42:30.737Z,1.25
2023-06-02T12:44:57.471Z,0.70
2023-06-02T12:47:25.449Z,1.10
2023-06-02T12:49:52.208Z,1.52
2023-06-02T12:52:18.942Z,1.27
2023-06-02T12:54:45.885Z,1.00
2023-06-02T12:57:12.688Z,0.88
2023-06-02T12:59:39.517Z,1.00
2023-06-02T13:02:06.600Z,0.95
2023-06-02T13:04:34.947Z,1.83
2023-06-02T13:07:01.789Z,1.10
2023-06-02T13:09:28.792Z,0.85
2023-06-02T13:11:55.518Z,0.90
2023-06-02T13:14:22.213Z,1.00
2023-06-02T13:16:48.888Z,0.80
2023-06-02T13:19:15.645Z,0.90
2023-06-02T13:21:43.716Z,0.70
2023-06-02T13:24:10.484Z,0.80
2023-06-02T13:26:37.375Z,0.88
2023-06-02T13:29:04.917Z,0.73
2023-06-02T13:31:31.853Z,0.70
2023-06-02T13:33:58.700Z,0.70
2023-06-02T13:36:25.367Z,1.00
2023-06-02T13:38:53.490Z,1.02
2023-06-02T13:41:20.281Z,0.73
2023-06-02T13:43:46.983Z,0.70
2023-06-02T13:46:13.756Z,0.80
2023-06-02T13:48:40.459Z,0.60
2023-06-02T13:51:08.711Z,0.52
2023-06-02T13:53:35.342Z,0.80
2023-06-02T13:56:03.695Z,0.60
2023-06-02T13:58:30.680Z,0.60
2023-06-02T14:00:57.485Z,0.70
2023-06-02T14:03:24.315Z,0.65
2023-06-02T14:05:51.205Z,0.60
2023-06-02T14:08:18.056Z,0.63
2023-06-02T14:10:44.755Z,0.70
2023-06-02T14:13:13.066Z,0.60
2023-06-02T14:15:39.897Z,0.40
2023-06-02T14:18:06.670Z,0.63
2023-06-02T14:20:34.793Z,0.55
2023-06-02T14:23:01.468Z,0.70
2023-06-02T14:25:28.216Z,0.63
2023-06-02T14:27:55.132Z,0.40
2023-06-02T14:30:25.138Z,0.70
2023-06-02T14:32:51.912Z,0.40
2023-06-02T14:35:19.252Z,0.63
2023-06-02T14:37:45.901Z,1.02
2023-06-02T14:40:13.133Z,0.63
2023-06-02T14:42:40.123Z,0.60
2023-06-02T14:45:08.224Z,0.77
2023-06-02T14:47:36.537Z,0.55
2023-06-02T14:50:03.597Z,0.60
2023-06-02T14:52:30.381Z,0.47
2023-06-02T14:54:57.010Z,0.50
2023-06-02T14:57:24.439Z,0.68
2023-06-02T14:59:51.383Z,0.80
2023-06-02T15:02:18.346Z,0.77
2023-06-02T15:04:46.515Z,0.52
2023-06-02T15:07:13.294Z,0.63
2023-06-02T15:09:40.105Z,0.50
2023-06-02T15:12:08.026Z,0.55
2023-06-02T15:14:34.725Z,0.60
2023-06-02T15:17:01.601Z,0.60
2023-06-02T15:19:28.385Z,0.60
2023-06-02T15:21:56.785Z,0.52
2023-06-02T15:24:25.957Z,0.70
2023-06-02T15:26:53.032Z,1.30
2023-06-02T15:29:19.895Z,0.50
2023-06-02T15:31:47.185Z,0.50
2023-06-02T15:34:15.150Z,0.63
2023-06-02T15:36:42.029Z,0.60
2023-06-02T15:39:10.168Z,0.50
2023-06-02T15:41:37.164Z,0.32
2023-06-02T15:44:04.002Z,0.50
2023-06-02T15:46:30.776Z,0.30
2023-06-02T15:48:57.612Z,1.05
2023-06-02T15:51:25.088Z,0.50
2023-06-02T15:53:51.865Z,0.40
2023-06-02T15:56:20.282Z,0.50
2023-06-02T15:58:47.110Z,0.70
2023-06-02T16:01:13.976Z,0.40
2023-06-02T16:03:40.908Z,0.85
2023-06-02T16:06:07.910Z,0.50
2023-06-02T16:08:34.724Z,0.60
2023-06-02T16:11:01.383Z,0.82
2023-06-02T16:13:29.486Z,0.75
2023-06-02T16:15:56.167Z,0.70
2023-06-02T16:18:23.005Z,0.63
2023-06-02T16:20:50.076Z,0.70
2023-06-02T16:23:16.764Z,0.65
2023-06-02T16:25:43.659Z,0.80
2023-06-02T16:28:10.422Z,1.02
2023-06-02T16:30:38.462Z,0.57
2023-06-02T16:33:05.224Z,0.70
2023-06-02T16:35:32.001Z,0.60
2023-06-02T16:37:58.658Z,0.82
2023-06-02T16:40:25.716Z,0.60
2023-06-02T16:42:52.447Z,0.50
2023-06-02T16:45:19.110Z,0.57
2023-06-02T16:47:47.179Z,0.65
2023-06-02T16:50:13.970Z,0.55
2023-06-02T16:52:40.738Z,0.85
2023-06-02T16:55:08.103Z,1.00
2023-06-02T16:57:34.750Z,0.52
2023-06-02T17:00:03.150Z,0.63
2023-06-02T17:02:30.211Z,0.60
2023-06-02T17:04:58.280Z,0.90
2023-06-02T17:07:25.027Z,0.80
2023-06-02T17:09:51.762Z,0.90
2023-06-02T17:12:18.537Z,1.65
2023-06-02T17:14:45.395Z,0.60
2023-06-02T17:17:12.075Z,1.83
2023-06-02T17:19:38.876Z,0.82
2023-06-02T17:22:07.367Z,1.27
2023-06-02T17:24:34.636Z,0.90
2023-06-02T17:27:01.956Z,1.05
2023-06-02T17:29:28.933Z,0.63
2023-06-02T17:31:56.077Z,1.10
2023-06-02T17:34:23.607Z,0.75
2023-06-02T17:36:50.436Z,0.90
2023-06-02T17:39:18.534Z,0.68
2023-06-02T17:41:45.225Z,0.93
2023-06-02T17:44:11.850Z,0.50
2023-06-02T17:46:38.640Z,0.95
2023-06-02T17:49:05.294Z,0.50
2023-06-02T17:51:32.055Z,0.73
2023-06-02T17:53:58.772Z,0.60
2023-06-02T17:56:26.860Z,1.10
2023-06-02T17:58:53.572Z,0.82
2023-06-02T18:01:20.316Z,0.90
2023-06-02T18:03:52.616Z,0.90
2023-06-02T18:06:19.802Z,0.88
2023-06-02T18:08:47.313Z,0.77
2023-06-02T18:11:14.934Z,0.60
2023-06-02T18:13:44.553Z,0.60
2023-06-02T18:16:13.010Z,0.70
2023-06-02T18:18:40.103Z,0.68
2023-06-02T18:21:10.326Z,0.65
2023-06-02T18:23:37.484Z,0.93
2023-06-02T18:26:04.686Z,0.55
2023-06-02T18:28:31.921Z,0.93
2023-06-02T18:31:01.186Z,0.50
2023-06-02T18:33:28.324Z,0.70
2023-06-02T18:35:55.617Z,0.73
2023-06-02T18:38:22.567Z,0.80
2023-06-02T18:40:50.066Z,0.70
2023-06-02T18:43:17.831Z,0.65
2023-06-02T18:45:45.368Z,0.80
2023-06-02T18:48:14.013Z,0.90
2023-06-02T18:50:41.211Z,0.50
2023-06-02T18:53:10.978Z,0.65
2023-06-02T18:55:38.213Z,0.55
2023-06-02T18:58:05.285Z,1.08
2023-06-02T19:00:32.626Z,0.80
2023-06-02T19:02:59.622Z,0.82
2023-06-02T19:05:28.851Z,0.98
2023-06-02T19:07:56.159Z,0.90
2023-06-02T19:10:23.567Z,0.70
2023-06-02T19:12:50.819Z,0.82
2023-06-02T19:15:18.236Z,0.70
2023-06-02T19:17:45.797Z,1.00
2023-06-02T19:20:14.517Z,0.90
2023-06-02T19:22:43.463Z,0.88
2023-06-02T19:25:12.378Z,1.45
2023-06-02T19:27:41.568Z,0.75
2023-06-02T19:30:09.716Z,0.70
2023-06-02T19:32:37.025Z,0.60
2023-06-02T19:35:04.715Z,0.93
2023-06-02T19:37:32.029Z,0.98
2023-06-02T19:40:00.906Z,0.70
2023-06-02T19:42:28.064Z,0.70
2023-06-02T19:44:55.057Z,1.00
2023-06-02T19:47:22.233Z,1.15
2023-06-02T19:49:49.581Z,1.42
2023-06-02T19:52:16.828Z,0.90
2023-06-02T19:54:43.985Z,1.40
2023-06-02T19:57:12.820Z,2.00
2023-06-02T19:59:40.323Z,1.75
2023-06-02T20:02:07.867Z,1.15
2023-06-02T20:04:36.171Z,1.70
2023-06-02T20:07:03.965Z,2.83
2023-06-02T20:09:30.701Z,1.80
2023-06-02T20:11:57.409Z,1.65
2023-06-02T20:14:28.097Z,1.23
2023-06-02T20:16:55.967Z,1.10
2023-06-02T20:19:22.780Z,1.10
2023-06-02T20:21:49.474Z,0.93
2023-06-02T20:24:16.335Z,1.05
2023-06-02T20:26:43.281Z,0.90
2023-06-02T20:29:09.982Z,1.00
2023-06-02T20:31:38.189Z,1.08
2023-06-02T20:34:04.976Z,0.80
2023-06-02T20:36:31.634Z,1.00
2023-06-02T20:38:58.216Z,1.30
2023-06-02T20:41:24.919Z,0.70
2023-06-02T20:43:51.631Z,0.80
2023-06-02T20:46:18.361Z,0.98
2023-06-02T20:48:46.488Z,0.80
2023-06-02T20:51:13.157Z,0.73
2023-06-02T20:53:39.871Z,0.60
2023-06-02T20:56:06.591Z,0.77
2023-06-02T20:58:33.504Z,0.70
2023-06-02T21:01:00.205Z,0.70
2023-06-02T21:03:27.331Z,0.90
2023-06-02T21:05:55.446Z,1.02
2023-06-02T21:08:22.136Z,1.20
2023-06-02T21:10:48.748Z,1.40
2023-06-02T21:13:15.441Z,1.42
2023-06-02T21:15:42.129Z,1.10
2023-06-02T21:18:08.944Z,0.98
2023-06-02T21:20:35.797Z,1.48
2023-06-02T21:23:03.864Z,1.30
2023-06-02T21:25:30.501Z,1.30
2023-06-02T21:27:57.196Z,1.00
2023-06-02T21:30:23.834Z,1.02
2023-06-02T21:32:50.548Z,1.00
2023-06-02T21:35:17.254Z,0.80
2023-06-02T21:37:44.008Z,1.15
2023-06-02T21:40:12.521Z,1.20
2023-06-02T21:42:39.180Z,0.98
2023-06-02T21:45:07.038Z,0.90
2023-06-02T21:47:33.767Z,1.50
2023-06-02T21:50:00.606Z,1.00
2023-06-02T21:52:27.310Z,0.90
2023-06-02T21:54:53.980Z,1.30
2023-06-02T21:57:22.256Z,1.17
2023-06-02T21:59:48.912Z,1.35
2023-06-02T22:02:15.614Z,1.30
2023-06-02T22:04:42.475Z,1.10
2023-06-02T22:07:09.486Z,1.35
2023-06-02T22:09:36.463Z,1.27
2023-06-02T22:12:03.531Z,1.30
2023-06-02T22:14:31.669Z,1.50
2023-06-02T22:16:58.369Z,1.63
2023-06-02T22:19:25.375Z,1.40
2023-06-02T22:21:56.077Z,1.77
2023-06-02T22:24:27.689Z,1.15
2023-06-02T22:26:56.216Z,0.90
2023-06-02T22:29:23.121Z,1.35
2023-06-02T22:31:51.277Z,1.10
2023-06-02T22:34:18.324Z,0.80
2023-06-02T22:36:45.132Z,1.25
2023-06-02T22:39:11.980Z,1.00
2023-06-02T22:41:38.658Z,0.90
2023-06-02T22:44:05.415Z,0.73
2023-06-02T22:46:32.161Z,1.20
2023-06-02T22:49:00.388Z,1.15
2023-06-02T22:51:27.644Z,0.88
2023-06-02T22:53:54.281Z,1.23
2023-06-02T22:56:20.982Z,1.05
2023-06-02T22:58:47.696Z,1.20
2023-06-02T23:01:14.474Z,1.23
2023-06-02T23:03:41.166Z,1.30
2023-06-02T23:06:09.357Z,1.10
2023-06-02T23:08:36.378Z,0.95
2023-06-02T23:11:03.281Z,1.02
2023-06-02T23:13:30.366Z,0.70
2023-06-02T23:15:57.042Z,0.90
2023-06-02T23:18:23.668Z,1.00
2023-06-02T23:20:50.370Z,0.82
2023-06-02T23:23:18.639Z,0.88
2023-06-02T23:25:45.364Z,1.10
2023-06-02T23:28:12.372Z,1.05
2023-06-02T23:30:39.133Z,1.08
2023-06-02T23:33:06.153Z,1.05
2023-06-02T23:35:33.333Z,1.15
2023-06-02T23:38:00.228Z,1.40
2023-06-02T23:40:28.317Z,1.45
2023-06-02T23:43:01.900Z,1.00
2023-06-02T23:45:28.602Z,1.10
2023-06-02T23:47:55.492Z,1.25
2023-06-02T23:50:22.232Z,1.63
2023-06-02T23:52:48.885Z,0.90
2023-06-02T23:55:15.544Z,1.23
2023-06-02T23:57:43.583Z,0.82
